Time;durP1;ratioP1;P1;durP2;ratioP2;P2;SDS_P1;SDS_P2;PMS_P1;PMS_P2;Temp;Humidity;BMP_temperature;BMP_pressure;BME280_temperature;BME280_humidity;BME280_pressure;Samples;Min_cycle;Max_cycle;Signal;HPM_P1;HPM_P2
2022/02/27 07:25:49;;;;;;;14.27;7.35;;;11.10;91.90;;;;;;6258680;22;20107;-82
2022/02/27 07:46:03;;;;;;;19.17;7.07;;;9.60;92.00;;;;;;6246904;23;20015;-81
2022/02/27 09:44:04;;;;;;;14.25;7.10;;;10.10;89.70;;;;;;6008255;23;20067;-87
2022/02/27 10:38:14;;;;;;;13.93;6.72;;;10.50;87.70;;;;;;5842479;24;20288;-82
2022/02/27 10:41:23;;;;;;;12.75;6.43;;;10.40;87.70;;;;;;5820163;24;20022;-80
2022/02/27 10:51:31;;;;;;;;;;;;;;;;;;;;;
2022/02/27 11:01:44;;;;;;;;;;;;;;;;;;;;;
2022/02/27 11:07:49;;;;;;;16.73;6.97;;;9.70;89.40;;;;;;6139920;22;20035;-80
2022/02/27 11:10:42;;;;;;;16.67;6.82;;;9.70;89.10;;;;;;6216774;23;20004;-81
2022/02/27 11:13:36;;;;;;;15.00;6.75;;;9.80;89.40;;;;;;6242882;23;20038;-80
2022/02/27 11:20:42;;;;;;;;;;;;;;;;;;;;;
2022/02/27 16:24:56;;;;;;;22.05;11.48;;;8.50;96.10;;;;;;6036011;23;20067;-81
2022/02/27 17:59:43;;;;;;;22.13;12.77;;;7.40;99.50;;;;;;6150687;23;20086;-84
2022/02/27 18:02:25;;;;;;;22.23;10.13;;;7.30;99.60;;;;;;6118696;23;20009;-80
2022/02/27 18:04:54;;;;;;;23.23;13.07;;;7.30;99.80;;;;;;6147834;22;20016;-82
2022/02/27 18:07:23;;;;;;;20.70;12.68;;;7.30;99.90;;;;;;6273540;22;20008;-79
2022/02/27 18:09:49;;;;;;;41.92;17.88;;;7.30;99.90;;;;;;6274015;22;20000;-79
2022/02/27 18:12:15;;;;;;;26.83;13.82;;;7.20;99.90;;;;;;6273093;22;20011;-79
2022/02/27 18:14:49;;;;;;;28.15;12.55;;;7.30;99.90;;;;;;6245537;22;20020;-80
2022/02/27 18:17:29;;;;;;;25.08;11.43;;;7.30;99.90;;;;;;6273509;22;20416;-82
2022/02/27 18:19:57;;;;;;;26.88;11.55;;;7.30;99.90;;;;;;6272622;22;20461;-78
2022/02/27 18:22:37;;;;;;;23.30;11.05;;;7.20;99.90;;;;;;6273264;22;19999;-78
2022/02/27 18:25:52;;;;;;;;;;;;;;;;;;;;;
2022/02/27 18:28:54;;;;;;;23.55;11.57;;;7.30;99.90;;;;;;6273846;22;20418;-80
2022/02/27 18:31:38;;;;;;;29.13;11.68;;;7.30;99.90;;;;;;6273554;22;20352;-79
2022/02/27 18:34:28;;;;;;;26.10;12.05;;;7.30;99.90;;;;;;6246803;22;20008;-79
2022/02/27 18:37:04;;;;;;;22.42;11.95;;;7.40;99.70;;;;;;6274081;22;19996;-80
2022/02/27 18:39:30;;;;;;;24.52;12.88;;;7.30;99.50;;;;;;6276416;22;20486;-79
2022/02/27 18:42:06;;;;;;;31.02;12.27;;;7.30;99.60;;;;;;6276125;22;19995;-79
2022/02/27 18:44:38;;;;;;;29.23;14.43;;;7.30;99.70;;;;;;6275324;22;20447;-79
2022/02/27 18:47:05;;;;;;;27.27;13.27;;;7.20;99.80;;;;;;6276456;22;20305;-80
2022/02/27 18:49:40;;;;;;;27.27;12.80;;;7.20;99.90;;;;;;6276326;22;20004;-81
2022/02/27 18:52:07;;;;;;;22.33;11.80;;;7.20;99.90;;;;;;6248948;22;20087;-79
2022/02/27 18:54:41;;;;;;;24.30;13.98;;;7.20;99.90;;;;;;6276376;22;19995;-78
2022/02/27 18:57:13;;;;;;;30.10;11.07;;;7.10;99.90;;;;;;6276159;22;20011;-79
2022/02/27 18:59:39;;;;;;;29.48;13.65;;;7.10;99.90;;;;;;6248785;22;20004;-79
2022/02/27 19:02:14;;;;;;;23.42;13.38;;;7.10;99.90;;;;;;6248617;22;20434;-79
2022/02/27 19:04:40;;;;;;;29.92;12.15;;;7.10;99.90;;;;;;6276591;22;20417;-79
2022/02/27 19:07:12;;;;;;;35.38;15.18;;;7.00;99.90;;;;;;6275346;22;20007;-78
2022/02/27 19:09:41;;;;;;;29.33;12.65;;;7.10;99.90;;;;;;6275361;22;20007;-78
2022/02/27 19:12:13;;;;;;;27.50;13.70;;;7.00;99.90;;;;;;6275285;22;20350;-80
2022/02/27 19:15:07;;;;;;;34.30;13.15;;;7.00;99.90;;;;;;6274212;22;20011;-79
2022/02/27 19:18:03;;;;;;;32.33;14.40;;;7.00;99.90;;;;;;6275557;22;20321;-79
2022/02/27 19:20:40;;;;;;;28.50;14.88;;;7.00;99.90;;;;;;6248006;22;20372;-78
2022/02/27 19:23:23;;;;;;;26.05;12.35;;;6.90;99.90;;;;;;6248096;22;20306;-82
2022/02/27 19:25:50;;;;;;;21.80;11.98;;;6.90;99.90;;;;;;6275687;22;19999;-78
2022/02/27 19:28:28;;;;;;;26.25;13.77;;;6.90;99.90;;;;;;6275426;22;19996;-80
2022/02/27 19:30:59;;;;;;;24.42;13.50;;;6.90;99.90;;;;;;6275034;22;20004;-78
2022/02/27 19:33:27;;;;;;;28.42;13.57;;;6.90;99.90;;;;;;6275577;22;20545;-79
2022/02/27 19:35:55;;;;;;;30.23;14.73;;;6.80;99.90;;;;;;6247073;22;20031;-79
2022/02/27 19:38:25;;;;;;;24.10;12.50;;;6.80;99.90;;;;;;6275893;22;20007;-78
2022/02/27 19:40:52;;;;;;;26.38;12.18;;;6.80;99.90;;;;;;6276009;22;19999;-79
2022/02/27 19:43:18;;;;;;;27.30;14.93;;;6.80;99.90;;;;;;6275542;22;20015;-80
2022/02/27 19:46:05;;;;;;;26.48;12.68;;;6.80;99.90;;;;;;6275429;22;20022;-78
2022/02/27 19:48:32;;;;;;;23.70;13.27;;;6.80;99.90;;;;;;6275059;22;20070;-79
2022/02/27 19:51:00;;;;;;;30.92;13.63;;;6.80;99.90;;;;;;6248249;22;20086;-77
2022/02/27 19:53:39;;;;;;;28.65;13.35;;;6.80;99.90;;;;;;6276064;22;20004;-80
2022/02/27 19:56:05;;;;;;;33.58;15.00;;;6.70;99.90;;;;;;6248406;22;20004;-78
2022/02/27 19:58:31;;;;;;;36.75;18.00;;;6.70;99.90;;;;;;6275466;22;20038;-80
2022/02/27 20:00:57;;;;;;;27.85;15.10;;;6.70;99.90;;;;;;6274726;22;20004;-77
2022/02/27 20:03:29;;;;;;;27.35;14.05;;;6.70;99.90;;;;;;6274106;22;20348;-76
2022/02/27 20:05:57;;;;;;;23.70;11.32;;;6.70;99.90;;;;;;6275031;22;20000;-76
2022/02/27 20:08:23;;;;;;;26.20;13.93;;;6.80;99.90;;;;;;6275566;22;20027;-80
2022/02/27 20:10:50;;;;;;;29.33;13.43;;;6.80;99.90;;;;;;6274921;22;20011;-78
2022/02/27 20:13:17;;;;;;;22.88;12.02;;;6.80;99.90;;;;;;6248619;22;20018;-80
2022/02/27 20:15:47;;;;;;;29.77;13.05;;;6.90;99.90;;;;;;6274062;22;20037;-79
2022/02/27 20:18:29;;;;;;;;;;;;;;;;;;;;;
2022/02/27 20:21:05;;;;;;;31.58;15.52;;;7.00;99.90;;;;;;6274934;22;20082;-78
2022/02/27 20:23:35;;;;;;;33.38;15.57;;;6.90;99.90;;;;;;6248278;22;20016;-81
2022/02/27 20:26:02;;;;;;;27.88;14.52;;;7.00;99.90;;;;;;6275480;22;20132;-79
2022/02/27 20:28:28;;;;;;;25.08;12.80;;;7.00;99.90;;;;;;6248075;22;20039;-79
2022/02/27 20:30:54;;;;;;;23.58;12.40;;;6.90;99.90;;;;;;6246614;22;20016;-80
2022/02/27 20:33:29;;;;;;;27.58;13.63;;;7.00;99.90;;;;;;6275604;22;20030;-77
2022/02/27 20:35:56;;;;;;;19.85;11.65;;;7.00;99.80;;;;;;6275447;22;20003;-80
2022/02/27 20:38:22;;;;;;;29.65;14.40;;;7.00;99.60;;;;;;6274348;22;20004;-79
2022/02/27 20:40:48;;;;;;;27.63;13.13;;;7.10;99.90;;;;;;6274957;22;20007;-78
2022/02/27 20:43:14;;;;;;;29.55;13.82;;;7.10;99.50;;;;;;6275248;22;20000;-83
2022/02/27 20:45:43;;;;;;;30.70;14.73;;;7.10;99.50;;;;;;6274301;22;20000;-81
2022/02/27 20:48:11;;;;;;;27.17;13.55;;;7.10;99.50;;;;;;6247573;22;20010;-78
2022/02/27 20:50:40;;;;;;;26.95;11.90;;;7.10;99.40;;;;;;6274424;22;20000;-79
2022/02/27 20:53:06;;;;;;;22.42;12.23;;;7.10;99.30;;;;;;6275434;22;20004;-79
2022/02/27 20:55:35;;;;;;;26.10;11.75;;;7.10;99.40;;;;;;6273998;22;20000;-80
2022/02/27 20:58:02;;;;;;;18.10;10.70;;;7.10;98.90;;;;;;6247251;22;20039;-78
2022/02/27 21:00:28;;;;;;;26.67;13.13;;;7.20;98.90;;;;;;6273857;22;20921;-77
2022/02/27 21:02:56;;;;;;;26.38;12.02;;;7.20;98.80;;;;;;6273731;22;19996;-79
2022/02/27 21:05:55;;;;;;;;;;;;;;;;;;;;;
2022/02/27 21:08:34;;;;;;;19.88;11.77;;;7.20;98.80;;;;;;6275133;22;20074;-80
2022/02/27 21:11:06;;;;;;;28.35;12.52;;;7.10;98.80;;;;;;6245983;22;20099;-80
2022/02/27 21:13:36;;;;;;;23.33;14.27;;;7.10;98.80;;;;;;6274460;22;20027;-80
2022/02/27 21:16:08;;;;;;;31.17;15.45;;;7.10;98.90;;;;;;6273846;22;20023;-80
2022/02/27 21:18:34;;;;;;;32.77;14.07;;;7.10;98.60;;;;;;6274235;22;19999;-81
2022/02/27 21:21:09;;;;;;;27.60;14.48;;;7.20;98.50;;;;;;6274551;22;20230;-80
2022/02/27 21:23:35;;;;;;;23.08;12.50;;;7.20;98.50;;;;;;6274697;22;20048;-79
2022/02/27 21:26:04;;;;;;;31.63;14.48;;;7.10;98.40;;;;;;6275158;22;20007;-79
2022/02/27 21:28:32;;;;;;;31.83;14.85;;;7.10;98.50;;;;;;6245473;22;20008;-78
2022/02/27 21:31:10;;;;;;;26.52;13.15;;;7.10;98.70;;;;;;6272937;22;20062;-83
2022/02/27 21:33:36;;;;;;;29.92;14.50;;;7.00;98.70;;;;;;6271179;22;20360;-80
2022/02/27 21:36:04;;;;;;;25.75;15.07;;;7.00;98.70;;;;;;6245956;22;20374;-81
2022/02/27 21:38:30;;;;;;;24.73;14.48;;;7.10;98.20;;;;;;6247772;22;20007;-81
2022/02/27 21:41:00;;;;;;;25.83;14.60;;;7.10;98.10;;;;;;6274162;22;20007;-79
2022/02/27 21:43:28;;;;;;;28.27;13.90;;;7.20;98.10;;;;;;6274925;22;19999;-79
2022/02/27 21:46:10;;;;;;;26.20;14.35;;;7.10;98.10;;;;;;6275189;22;20069;-81
2022/02/27 21:48:36;;;;;;;44.35;14.63;;;7.10;98.20;;;;;;6274378;22;19995;-80
2022/02/27 21:51:19;;;;;;;25.30;14.57;;;7.00;98.40;;;;;;6272668;22;20011;-79
2022/02/27 21:53:59;;;;;;;27.55;14.38;;;7.00;98.50;;;;;;6273812;22;20074;-83
2022/02/27 21:56:36;;;;;;;29.63;14.98;;;7.00;98.40;;;;;;6275669;22;19999;-81
2022/02/27 21:59:02;;;;;;;25.42;14.52;;;7.10;98.10;;;;;;6275115;22;20030;-79
2022/02/27 22:01:28;;;;;;;33.72;14.18;;;7.10;98.20;;;;;;6276409;22;20002;-83
2022/02/27 22:03:54;;;;;;;31.13;15.55;;;7.10;98.10;;;;;;6276182;22;20007;-81
2022/02/27 22:06:21;;;;;;;30.00;14.80;;;7.10;98.30;;;;;;6275472;22;19996;-81
2022/02/27 22:08:47;;;;;;;30.48;14.05;;;7.00;98.40;;;;;;6275627;22;20010;-81
2022/02/27 22:11:16;;;;;;;32.40;14.52;;;7.00;98.50;;;;;;6247855;22;20012;-80
2022/02/27 22:13:43;;;;;;;30.15;14.43;;;7.00;98.30;;;;;;6276005;22;19996;-83
2022/02/27 22:16:37;;;;;;;;;;;;;;;;;;;;;
2022/02/27 22:19:05;;;;;;;28.52;14.90;;;7.00;98.40;;;;;;6275650;22;20075;-81
2022/02/27 22:21:36;;;;;;;32.80;15.68;;;7.10;98.30;;;;;;6276052;22;20008;-80
2022/02/27 22:24:05;;;;;;;23.92;13.27;;;7.00;98.20;;;;;;6276286;22;19999;-83
2022/02/27 22:26:31;;;;;;;23.55;14.10;;;7.10;98.20;;;;;;6275535;22;20074;-80
2022/02/27 22:29:01;;;;;;;27.77;14.55;;;7.00;98.10;;;;;;6275634;22;20053;-80
2022/02/27 22:34:36;;;;;;;26.17;13.48;;;7.00;98.20;;;;;;6272653;22;20500;-81
2022/02/27 22:37:03;;;;;;;29.52;14.88;;;7.00;98.30;;;;;;6276151;22;19999;-80
2022/02/27 22:39:51;;;;;;;27.65;15.13;;;7.00;98.30;;;;;;6245129;22;20031;-81
2022/02/27 22:42:18;;;;;;;24.10;13.13;;;7.00;98.30;;;;;;6152279;23;20033;-81
2022/02/27 22:44:44;;;;;;;27.38;13.95;;;7.00;98.30;;;;;;6232610;22;20075;-81
2022/02/27 22:47:12;;;;;;;28.48;14.73;;;7.00;98.30;;;;;;6245206;22;20361;-81
2022/02/27 22:49:43;;;;;;;25.10;14.40;;;7.00;98.20;;;;;;6245233;22;20000;-80
2022/02/27 22:52:09;;;;;;;28.73;15.02;;;7.00;98.30;;;;;;6242681;23;20019;-82
2022/02/27 22:55:13;;;;;;;38.35;14.85;;;7.00;98.20;;;;;;6245350;22;20000;-82
2022/02/27 22:57:39;;;;;;;29.90;14.35;;;7.00;98.10;;;;;;6152146;23;20371;-81
2022/02/27 23:00:31;;;;;;;22.85;13.48;;;7.00;98.00;;;;;;6240930;22;20011;-79
2022/02/27 23:03:03;;;;;;;26.48;13.27;;;7.00;97.90;;;;;;6244018;23;20452;-81
2022/02/27 23:05:29;;;;;;;;;;;7.00;97.90;;;;;;6245644;23;20239;-81
2022/02/27 23:10:43;;;;;;;27.35;14.05;;;7.00;98.00;;;;;;6245474;23;20383;-82
2022/02/27 23:13:14;;;;;;;28.75;14.20;;;7.00;97.90;;;;;;6245191;22;20019;-80
2022/02/27 23:15:44;;;;;;;25.90;13.90;;;6.90;98.10;;;;;;6245364;22;20317;-81
2022/02/27 23:18:15;;;;;;;27.15;14.32;;;6.90;97.90;;;;;;6245066;22;20004;-82
2022/02/27 23:20:43;;;;;;;35.17;14.63;;;6.90;97.90;;;;;;6245012;22;20000;-83
2022/02/27 23:23:09;;;;;;;28.88;14.00;;;6.90;97.90;;;;;;6245396;23;20024;-81
2022/02/27 23:25:38;;;;;;;28.15;14.48;;;7.00;97.90;;;;;;6246965;22;20000;-84
2022/02/27 23:28:05;;;;;;;27.63;14.38;;;6.90;97.80;;;;;;6247241;22;20007;-80
2022/02/27 23:30:33;;;;;;;31.33;14.73;;;6.90;97.70;;;;;;6245144;23;20008;-83
2022/02/27 23:33:01;;;;;;;23.15;13.77;;;6.90;97.90;;;;;;6245003;23;20030;-81
2022/02/27 23:35:31;;;;;;;35.08;13.98;;;6.90;97.80;;;;;;6246746;23;20079;-80
2022/02/27 23:37:59;;;;;;;29.27;15.45;;;6.90;97.80;;;;;;6247251;22;20046;-83
2022/02/27 23:40:25;;;;;;;31.80;14.38;;;6.80;98.00;;;;;;6246697;22;20001;-83
2022/02/27 23:42:54;;;;;;;27.38;13.73;;;6.80;98.10;;;;;;6245088;23;20026;-81
2022/02/27 23:45:23;;;;;;;36.28;14.25;;;6.70;98.10;;;;;;6246477;22;20004;-84
2022/02/27 23:47:52;;;;;;;25.92;14.02;;;6.80;98.10;;;;;;6246532;22;20000;-80
2022/02/27 23:50:49;;;;;;;33.45;14.70;;;6.80;98.20;;;;;;6245624;23;20004;-80
2022/02/27 23:53:23;;;;;;;30.48;13.45;;;6.70;98.30;;;;;;6246160;23;20008;-80
2022/02/27 23:55:51;;;;;;;27.23;12.80;;;6.70;98.20;;;;;;6245187;22;20006;-84
2022/02/27 23:58:18;;;;;;;28.10;14.23;;;6.70;98.30;;;;;;6245075;22;20103;-81
